sensor_id;sensor_type;location;lat;lon;timestamp;P1;durP1;ratioP1;P2;durP2;ratioP2
8663;SDS011;4369;47.842;13.096;2022-10-15T00:01:11;8.23;;;2.37;;
8663;SDS011;4369;47.842;13.096;2022-10-15T00:03:39;6.77;;;2.20;;
8663;SDS011;4369;47.842;13.096;2022-10-15T00:06:08;4.87;;;2.40;;
8663;SDS011;4369;47.842;13.096;2022-10-15T00:08:37;6.33;;;2.30;;
8663;SDS011;4369;47.842;13.096;2022-10-15T00:11:05;3.43;;;2.30;;
8663;SDS011;4369;47.842;13.096;2022-10-15T00:13:36;3.23;;;2.10;;
8663;SDS011;4369;47.842;13.096;2022-10-15T00:16:05;2.47;;;2.27;;
8663;SDS011;4369;47.842;13.096;2022-10-15T00:18:33;3.17;;;2.30;;
8663;SDS011;4369;47.842;13.096;2022-10-15T00:21:00;2.63;;;2.43;;
8663;SDS011;4369;47.842;13.096;2022-10-15T00:23:27;3.87;;;2.23;;
8663;SDS011;4369;47.842;13.096;2022-10-15T00:26:00;4.63;;;2.33;;
8663;SDS011;4369;47.842;13.096;2022-10-15T00:28:29;6.07;;;2.40;;
8663;SDS011;4369;47.842;13.096;2022-10-15T00:31:00;4.73;;;2.23;;
8663;SDS011;4369;47.842;13.096;2022-10-15T00:33:30;3.20;;;2.17;;
8663;SDS011;4369;47.842;13.096;2022-10-15T00:35:59;2.67;;;2.47;;
8663;SDS011;4369;47.842;13.096;2022-10-15T00:38:27;2.63;;;2.27;;
8663;SDS011;4369;47.842;13.096;2022-10-15T00:40:54;3.13;;;2.43;;
8663;SDS011;4369;47.842;13.096;2022-10-15T00:43:37;3.57;;;2.10;;
8663;SDS011;4369;47.842;13.096;2022-10-15T00:46:11;3.00;;;2.40;;
8663;SDS011;4369;47.842;13.096;2022-10-15T00:48:43;4.37;;;2.40;;
8663;SDS011;4369;47.842;13.096;2022-10-15T00:51:12;6.57;;;2.47;;
8663;SDS011;4369;47.842;13.096;2022-10-15T00:53:40;6.47;;;2.60;;
8663;SDS011;4369;47.842;13.096;2022-10-15T00:56:07;4.03;;;2.50;;
8663;SDS011;4369;47.842;13.096;2022-10-15T00:58:34;3.60;;;2.20;;
8663;SDS011;4369;47.842;13.096;2022-10-15T01:01:01;5.47;;;2.60;;
8663;SDS011;4369;47.842;13.096;2022-10-15T01:03:30;3.80;;;2.53;;
8663;SDS011;4369;47.842;13.096;2022-10-15T01:05:59;2.50;;;2.30;;
8663;SDS011;4369;47.842;13.096;2022-10-15T01:08:26;5.20;;;2.33;;
8663;SDS011;4369;47.842;13.096;2022-10-15T01:10:54;7.73;;;2.37;;
8663;SDS011;4369;47.842;13.096;2022-10-15T01:13:32;5.80;;;2.53;;
8663;SDS011;4369;47.842;13.096;2022-10-15T01:16:05;3.20;;;2.40;;
8663;SDS011;4369;47.842;13.096;2022-10-15T01:18:40;4.20;;;2.40;;
8663;SDS011;4369;47.842;13.096;2022-10-15T01:21:12;4.50;;;2.60;;
8663;SDS011;4369;47.842;13.096;2022-10-15T01:26:59;4.07;;;2.30;;
8663;SDS011;4369;47.842;13.096;2022-10-15T01:32:42;3.10;;;2.80;;
8663;SDS011;4369;47.842;13.096;2022-10-15T01:35:20;4.97;;;2.80;;
8663;SDS011;4369;47.842;13.096;2022-10-15T01:37:58;7.87;;;2.80;;
8663;SDS011;4369;47.842;13.096;2022-10-15T01:40:32;7.20;;;2.50;;
8663;SDS011;4369;47.842;13.096;2022-10-15T01:43:02;6.20;;;2.40;;
8663;SDS011;4369;47.842;13.096;2022-10-15T01:45:35;2.60;;;2.40;;
8663;SDS011;4369;47.842;13.096;2022-10-15T01:48:05;3.57;;;2.43;;
8663;SDS011;4369;47.842;13.096;2022-10-15T01:50:36;2.57;;;2.17;;
8663;SDS011;4369;47.842;13.096;2022-10-15T01:53:05;3.93;;;2.50;;
8663;SDS011;4369;47.842;13.096;2022-10-15T01:55:33;3.30;;;2.37;;
8663;SDS011;4369;47.842;13.096;2022-10-15T01:58:06;2.20;;;2.10;;
8663;SDS011;4369;47.842;13.096;2022-10-15T02:00:36;2.00;;;1.80;;
8663;SDS011;4369;47.842;13.096;2022-10-15T02:03:03;6.63;;;2.20;;
8663;SDS011;4369;47.842;13.096;2022-10-15T02:05:31;3.47;;;2.10;;
8663;SDS011;4369;47.842;13.096;2022-10-15T02:08:05;5.13;;;2.10;;
8663;SDS011;4369;47.842;13.096;2022-10-15T02:10:37;2.20;;;2.00;;
8663;SDS011;4369;47.842;13.096;2022-10-15T02:13:12;2.50;;;1.97;;
8663;SDS011;4369;47.842;13.096;2022-10-15T02:15:47;4.67;;;2.10;;
8663;SDS011;4369;47.842;13.096;2022-10-15T02:18:25;4.47;;;2.20;;
8663;SDS011;4369;47.842;13.096;2022-10-15T02:20:57;2.17;;;1.97;;
8663;SDS011;4369;47.842;13.096;2022-10-15T02:23:30;2.93;;;2.20;;
8663;SDS011;4369;47.842;13.096;2022-10-15T02:26:01;2.97;;;2.33;;
8663;SDS011;4369;47.842;13.096;2022-10-15T02:28:32;3.30;;;2.30;;
8663;SDS011;4369;47.842;13.096;2022-10-15T02:31:03;2.23;;;2.10;;
8663;SDS011;4369;47.842;13.096;2022-10-15T02:33:32;2.83;;;2.17;;
8663;SDS011;4369;47.842;13.096;2022-10-15T02:36:00;4.50;;;2.30;;
8663;SDS011;4369;47.842;13.096;2022-10-15T02:38:28;6.80;;;2.57;;
8663;SDS011;4369;47.842;13.096;2022-10-15T02:40:56;4.10;;;2.10;;
8663;SDS011;4369;47.842;13.096;2022-10-15T02:43:24;2.33;;;2.13;;
8663;SDS011;4369;47.842;13.096;2022-10-15T02:45:50;4.13;;;2.40;;
8663;SDS011;4369;47.842;13.096;2022-10-15T02:48:19;4.27;;;2.50;;
8663;SDS011;4369;47.842;13.096;2022-10-15T02:50:45;5.27;;;2.30;;
8663;SDS011;4369;47.842;13.096;2022-10-15T02:53:12;2.77;;;2.33;;
8663;SDS011;4369;47.842;13.096;2022-10-15T02:55:39;4.87;;;2.20;;
8663;SDS011;4369;47.842;13.096;2022-10-15T02:58:06;4.97;;;2.20;;
8663;SDS011;4369;47.842;13.096;2022-10-15T03:00:33;3.93;;;2.40;;
8663;SDS011;4369;47.842;13.096;2022-10-15T03:03:00;3.53;;;2.50;;
8663;SDS011;4369;47.842;13.096;2022-10-15T03:05:28;5.30;;;2.43;;
8663;SDS011;4369;47.842;13.096;2022-10-15T03:07:55;5.10;;;2.43;;
8663;SDS011;4369;47.842;13.096;2022-10-15T03:10:24;2.77;;;2.10;;
8663;SDS011;4369;47.842;13.096;2022-10-15T03:12:51;3.30;;;2.37;;
8663;SDS011;4369;47.842;13.096;2022-10-15T03:15:18;2.90;;;2.23;;
8663;SDS011;4369;47.842;13.096;2022-10-15T03:17:45;2.50;;;2.37;;
8663;SDS011;4369;47.842;13.096;2022-10-15T03:20:12;3.70;;;2.23;;
8663;SDS011;4369;47.842;13.096;2022-10-15T03:22:40;3.30;;;2.50;;
8663;SDS011;4369;47.842;13.096;2022-10-15T03:25:07;3.30;;;2.30;;
8663;SDS011;4369;47.842;13.096;2022-10-15T03:27:34;2.57;;;2.37;;
8663;SDS011;4369;47.842;13.096;2022-10-15T03:30:01;3.27;;;2.30;;
8663;SDS011;4369;47.842;13.096;2022-10-15T03:32:28;2.63;;;2.43;;
8663;SDS011;4369;47.842;13.096;2022-10-15T03:34:55;2.60;;;2.40;;
8663;SDS011;4369;47.842;13.096;2022-10-15T03:37:22;2.40;;;2.10;;
8663;SDS011;4369;47.842;13.096;2022-10-15T03:39:50;1.97;;;1.83;;
8663;SDS011;4369;47.842;13.096;2022-10-15T03:42:17;9.33;;;2.50;;
8663;SDS011;4369;47.842;13.096;2022-10-15T03:44:43;3.70;;;2.73;;
8663;SDS011;4369;47.842;13.096;2022-10-15T03:47:10;4.23;;;2.70;;
8663;SDS011;4369;47.842;13.096;2022-10-15T03:49:37;3.57;;;2.30;;
8663;SDS011;4369;47.842;13.096;2022-10-15T03:52:04;3.27;;;2.90;;
8663;SDS011;4369;47.842;13.096;2022-10-15T03:54:31;4.20;;;2.43;;
8663;SDS011;4369;47.842;13.096;2022-10-15T03:56:59;3.80;;;2.00;;
8663;SDS011;4369;47.842;13.096;2022-10-15T03:59:26;3.80;;;2.30;;
8663;SDS011;4369;47.842;13.096;2022-10-15T04:01:53;2.83;;;2.17;;
8663;SDS011;4369;47.842;13.096;2022-10-15T04:04:20;2.70;;;2.13;;
8663;SDS011;4369;47.842;13.096;2022-10-15T04:06:48;2.70;;;2.20;;
8663;SDS011;4369;47.842;13.096;2022-10-15T04:09:15;2.67;;;2.40;;
8663;SDS011;4369;47.842;13.096;2022-10-15T04:11:42;2.20;;;2.00;;
8663;SDS011;4369;47.842;13.096;2022-10-15T04:14:10;2.97;;;2.60;;
8663;SDS011;4369;47.842;13.096;2022-10-15T04:16:37;2.57;;;2.30;;
8663;SDS011;4369;47.842;13.096;2022-10-15T04:19:04;3.20;;;2.43;;
8663;SDS011;4369;47.842;13.096;2022-10-15T04:21:31;4.03;;;2.90;;
8663;SDS011;4369;47.842;13.096;2022-10-15T04:23:57;3.73;;;3.23;;
8663;SDS011;4369;47.842;13.096;2022-10-15T04:26:24;3.00;;;2.30;;
8663;SDS011;4369;47.842;13.096;2022-10-15T04:28:51;2.80;;;2.60;;
8663;SDS011;4369;47.842;13.096;2022-10-15T04:31:19;3.57;;;3.27;;
8663;SDS011;4369;47.842;13.096;2022-10-15T04:33:46;3.90;;;2.50;;
8663;SDS011;4369;47.842;13.096;2022-10-15T04:36:14;3.40;;;2.83;;
8663;SDS011;4369;47.842;13.096;2022-10-15T04:38:41;3.73;;;3.43;;
8663;SDS011;4369;47.842;13.096;2022-10-15T04:41:08;4.03;;;3.33;;
8663;SDS011;4369;47.842;13.096;2022-10-15T04:43:36;4.20;;;3.77;;
8663;SDS011;4369;47.842;13.096;2022-10-15T04:46:05;6.53;;;3.40;;
8663;SDS011;4369;47.842;13.096;2022-10-15T04:48:34;5.73;;;3.73;;
8663;SDS011;4369;47.842;13.096;2022-10-15T04:51:03;5.67;;;4.13;;
8663;SDS011;4369;47.842;13.096;2022-10-15T04:53:31;5.90;;;3.90;;
8663;SDS011;4369;47.842;13.096;2022-10-15T04:55:59;5.83;;;4.13;;
8663;SDS011;4369;47.842;13.096;2022-10-15T04:58:27;9.07;;;8.23;;
8663;SDS011;4369;47.842;13.096;2022-10-15T05:00:57;6.77;;;6.10;;
8663;SDS011;4369;47.842;13.096;2022-10-15T05:03:25;8.07;;;5.40;;
8663;SDS011;4369;47.842;13.096;2022-10-15T05:05:53;6.63;;;4.40;;
8663;SDS011;4369;47.842;13.096;2022-10-15T05:08:30;7.50;;;5.50;;
8663;SDS011;4369;47.842;13.096;2022-10-15T05:10:59;6.27;;;4.60;;
8663;SDS011;4369;47.842;13.096;2022-10-15T05:13:27;6.17;;;4.27;;
8663;SDS011;4369;47.842;13.096;2022-10-15T05:15:54;5.23;;;4.50;;
8663;SDS011;4369;47.842;13.096;2022-10-15T05:18:21;7.70;;;4.87;;
8663;SDS011;4369;47.842;13.096;2022-10-15T05:20:48;5.13;;;4.63;;
8663;SDS011;4369;47.842;13.096;2022-10-15T05:23:16;7.83;;;5.10;;
8663;SDS011;4369;47.842;13.096;2022-10-15T05:25:43;7.13;;;4.47;;
8663;SDS011;4369;47.842;13.096;2022-10-15T05:28:10;6.00;;;4.93;;
8663;SDS011;4369;47.842;13.096;2022-10-15T05:30:36;7.27;;;5.03;;
8663;SDS011;4369;47.842;13.096;2022-10-15T05:33:03;6.17;;;3.90;;
8663;SDS011;4369;47.842;13.096;2022-10-15T05:35:30;6.33;;;3.93;;
8663;SDS011;4369;47.842;13.096;2022-10-15T05:37:57;4.70;;;4.23;;
8663;SDS011;4369;47.842;13.096;2022-10-15T05:40:25;5.40;;;4.67;;
8663;SDS011;4369;47.842;13.096;2022-10-15T05:42:52;7.30;;;5.37;;
8663;SDS011;4369;47.842;13.096;2022-10-15T05:45:19;7.70;;;5.53;;
8663;SDS011;4369;47.842;13.096;2022-10-15T05:47:46;8.00;;;5.40;;
8663;SDS011;4369;47.842;13.096;2022-10-15T05:50:12;7.97;;;5.53;;
8663;SDS011;4369;47.842;13.096;2022-10-15T05:52:39;6.87;;;5.47;;
8663;SDS011;4369;47.842;13.096;2022-10-15T05:55:07;11.67;;;6.67;;
8663;SDS011;4369;47.842;13.096;2022-10-15T05:57:35;7.40;;;5.87;;
8663;SDS011;4369;47.842;13.096;2022-10-15T06:00:03;8.53;;;5.87;;
8663;SDS011;4369;47.842;13.096;2022-10-15T06:02:31;7.07;;;5.60;;
8663;SDS011;4369;47.842;13.096;2022-10-15T06:04:58;9.80;;;5.07;;
8663;SDS011;4369;47.842;13.096;2022-10-15T06:07:25;8.93;;;5.07;;
8663;SDS011;4369;47.842;13.096;2022-10-15T06:09:51;8.57;;;5.93;;
8663;SDS011;4369;47.842;13.096;2022-10-15T06:12:18;7.63;;;5.23;;
8663;SDS011;4369;47.842;13.096;2022-10-15T06:14:46;8.20;;;5.53;;
8663;SDS011;4369;47.842;13.096;2022-10-15T06:17:13;7.87;;;5.23;;
8663;SDS011;4369;47.842;13.096;2022-10-15T06:19:40;9.63;;;6.53;;
8663;SDS011;4369;47.842;13.096;2022-10-15T06:22:07;6.63;;;5.80;;
8663;SDS011;4369;47.842;13.096;2022-10-15T06:24:34;6.43;;;5.70;;
8663;SDS011;4369;47.842;13.096;2022-10-15T06:27:01;7.27;;;5.27;;
8663;SDS011;4369;47.842;13.096;2022-10-15T06:29:27;7.23;;;5.17;;
8663;SDS011;4369;47.842;13.096;2022-10-15T06:31:56;10.30;;;6.10;;
8663;SDS011;4369;47.842;13.096;2022-10-15T06:34:22;13.10;;;7.03;;
8663;SDS011;4369;47.842;13.096;2022-10-15T06:36:50;10.10;;;5.70;;
8663;SDS011;4369;47.842;13.096;2022-10-15T06:39:17;8.57;;;6.13;;
8663;SDS011;4369;47.842;13.096;2022-10-15T06:41:44;7.97;;;6.03;;
8663;SDS011;4369;47.842;13.096;2022-10-15T06:44:11;9.67;;;6.20;;
8663;SDS011;4369;47.842;13.096;2022-10-15T06:46:38;9.57;;;6.40;;
8663;SDS011;4369;47.842;13.096;2022-10-15T06:49:06;9.70;;;6.70;;
8663;SDS011;4369;47.842;13.096;2022-10-15T06:51:33;13.93;;;6.27;;
8663;SDS011;4369;47.842;13.096;2022-10-15T06:54:01;11.67;;;7.40;;
8663;SDS011;4369;47.842;13.096;2022-10-15T06:56:28;50.23;;;9.40;;
8663;SDS011;4369;47.842;13.096;2022-10-15T06:58:55;8.23;;;6.30;;
8663;SDS011;4369;47.842;13.096;2022-10-15T07:01:22;15.87;;;7.07;;
8663;SDS011;4369;47.842;13.096;2022-10-15T07:03:49;8.93;;;6.40;;
8663;SDS011;4369;47.842;13.096;2022-10-15T07:06:17;13.63;;;7.17;;
8663;SDS011;4369;47.842;13.096;2022-10-15T07:08:44;9.10;;;6.10;;
8663;SDS011;4369;47.842;13.096;2022-10-15T07:11:11;14.77;;;7.00;;
8663;SDS011;4369;47.842;13.096;2022-10-15T07:13:38;8.10;;;5.70;;
8663;SDS011;4369;47.842;13.096;2022-10-15T07:16:06;6.10;;;4.93;;
8663;SDS011;4369;47.842;13.096;2022-10-15T07:18:37;6.53;;;5.20;;
8663;SDS011;4369;47.842;13.096;2022-10-15T07:21:05;5.63;;;4.80;;
8663;SDS011;4369;47.842;13.096;2022-10-15T07:23:34;6.53;;;4.17;;
8663;SDS011;4369;47.842;13.096;2022-10-15T07:26:01;7.43;;;5.73;;
8663;SDS011;4369;47.842;13.096;2022-10-15T07:28:27;10.97;;;5.90;;
8663;SDS011;4369;47.842;13.096;2022-10-15T07:30:58;9.33;;;6.13;;
8663;SDS011;4369;47.842;13.096;2022-10-15T07:33:25;5.83;;;5.23;;
8663;SDS011;4369;47.842;13.096;2022-10-15T07:35:52;11.10;;;5.67;;
8663;SDS011;4369;47.842;13.096;2022-10-15T07:38:19;7.73;;;5.50;;
8663;SDS011;4369;47.842;13.096;2022-10-15T07:40:47;7.33;;;6.40;;
8663;SDS011;4369;47.842;13.096;2022-10-15T07:43:14;13.60;;;6.80;;
8663;SDS011;4369;47.842;13.096;2022-10-15T07:45:42;7.37;;;5.50;;
8663;SDS011;4369;47.842;13.096;2022-10-15T07:48:13;12.83;;;6.27;;
8663;SDS011;4369;47.842;13.096;2022-10-15T07:50:40;8.13;;;5.87;;
8663;SDS011;4369;47.842;13.096;2022-10-15T07:53:07;8.27;;;6.17;;
8663;SDS011;4369;47.842;13.096;2022-10-15T07:55:34;9.00;;;4.90;;
8663;SDS011;4369;47.842;13.096;2022-10-15T07:58:02;6.80;;;5.63;;
8663;SDS011;4369;47.842;13.096;2022-10-15T08:00:32;8.07;;;5.60;;
8663;SDS011;4369;47.842;13.096;2022-10-15T08:02:59;7.57;;;5.50;;
8663;SDS011;4369;47.842;13.096;2022-10-15T08:05:26;6.80;;;5.10;;
8663;SDS011;4369;47.842;13.096;2022-10-15T08:07:52;4.47;;;3.70;;
8663;SDS011;4369;47.842;13.096;2022-10-15T08:10:21;5.03;;;4.10;;
8663;SDS011;4369;47.842;13.096;2022-10-15T08:12:48;4.70;;;3.73;;
8663;SDS011;4369;47.842;13.096;2022-10-15T08:15:16;6.93;;;4.57;;
8663;SDS011;4369;47.842;13.096;2022-10-15T08:17:43;6.43;;;4.80;;
8663;SDS011;4369;47.842;13.096;2022-10-15T08:20:10;6.45;;;5.53;;
8663;SDS011;4369;47.842;13.096;2022-10-15T08:22:38;5.97;;;4.90;;
8663;SDS011;4369;47.842;13.096;2022-10-15T08:25:05;4.93;;;4.43;;
8663;SDS011;4369;47.842;13.096;2022-10-15T08:27:32;8.00;;;5.53;;
8663;SDS011;4369;47.842;13.096;2022-10-15T08:29:59;3.63;;;3.10;;
8663;SDS011;4369;47.842;13.096;2022-10-15T08:32:27;6.53;;;4.30;;
8663;SDS011;4369;47.842;13.096;2022-10-15T08:34:54;5.73;;;3.83;;
8663;SDS011;4369;47.842;13.096;2022-10-15T08:37:21;4.80;;;4.10;;
8663;SDS011;4369;47.842;13.096;2022-10-15T08:39:47;4.37;;;3.97;;
8663;SDS011;4369;47.842;13.096;2022-10-15T08:42:15;5.53;;;3.53;;
8663;SDS011;4369;47.842;13.096;2022-10-15T08:44:45;7.77;;;4.20;;
8663;SDS011;4369;47.842;13.096;2022-10-15T08:47:21;6.23;;;3.57;;
8663;SDS011;4369;47.842;13.096;2022-10-15T08:49:55;5.13;;;3.80;;
8663;SDS011;4369;47.842;13.096;2022-10-15T08:52:25;7.03;;;4.53;;
8663;SDS011;4369;47.842;13.096;2022-10-15T08:55:01;5.97;;;3.97;;
8663;SDS011;4369;47.842;13.096;2022-10-15T08:57:31;4.80;;;3.60;;
8663;SDS011;4369;47.842;13.096;2022-10-15T09:00:04;5.60;;;4.07;;
8663;SDS011;4369;47.842;13.096;2022-10-15T09:02:38;12.17;;;4.37;;
8663;SDS011;4369;47.842;13.096;2022-10-15T09:05:18;4.90;;;4.17;;
8663;SDS011;4369;47.842;13.096;2022-10-15T09:07:53;6.37;;;4.60;;
8663;SDS011;4369;47.842;13.096;2022-10-15T09:10:26;5.67;;;3.80;;
8663;SDS011;4369;47.842;13.096;2022-10-15T09:13:02;9.53;;;5.47;;
8663;SDS011;4369;47.842;13.096;2022-10-15T09:15:33;14.17;;;6.30;;
8663;SDS011;4369;47.842;13.096;2022-10-15T09:18:08;9.17;;;5.43;;
8663;SDS011;4369;47.842;13.096;2022-10-15T09:20:45;6.97;;;5.30;;
8663;SDS011;4369;47.842;13.096;2022-10-15T09:23:12;10.53;;;6.23;;
8663;SDS011;4369;47.842;13.096;2022-10-15T09:37:26;5.50;;;5.00;;
8663;SDS011;4369;47.842;13.096;2022-10-15T09:40:02;5.93;;;4.93;;
8663;SDS011;4369;47.842;13.096;2022-10-15T09:42:46;5.67;;;4.93;;
8663;SDS011;4369;47.842;13.096;2022-10-15T09:45:21;5.10;;;4.13;;
8663;SDS011;4369;47.842;13.096;2022-10-15T09:47:49;6.07;;;4.30;;
8663;SDS011;4369;47.842;13.096;2022-10-15T09:50:16;4.40;;;4.00;;
8663;SDS011;4369;47.842;13.096;2022-10-15T09:52:52;4.93;;;3.17;;
8663;SDS011;4369;47.842;13.096;2022-10-15T09:55:33;5.47;;;3.27;;
8663;SDS011;4369;47.842;13.096;2022-10-15T09:58:06;4.77;;;3.33;;
8663;SDS011;4369;47.842;13.096;2022-10-15T10:03:29;4.97;;;3.43;;
8663;SDS011;4369;47.842;13.096;2022-10-15T10:05:58;6.10;;;2.90;;
8663;SDS011;4369;47.842;13.096;2022-10-15T10:08:28;5.23;;;3.50;;
8663;SDS011;4369;47.842;13.096;2022-10-15T10:11:00;5.95;;;3.45;;
8663;SDS011;4369;47.842;13.096;2022-10-15T10:13:29;3.43;;;3.13;;
8663;SDS011;4369;47.842;13.096;2022-10-15T10:16:01;3.77;;;2.90;;
8663;SDS011;4369;47.842;13.096;2022-10-15T10:18:33;5.03;;;3.47;;
8663;SDS011;4369;47.842;13.096;2022-10-15T10:21:02;5.87;;;2.77;;
8663;SDS011;4369;47.842;13.096;2022-10-15T10:23:34;3.60;;;3.10;;
8663;SDS011;4369;47.842;13.096;2022-10-15T10:26:03;4.63;;;3.17;;
8663;SDS011;4369;47.842;13.096;2022-10-15T10:28:33;5.83;;;3.50;;
8663;SDS011;4369;47.842;13.096;2022-10-15T10:31:03;3.90;;;3.57;;
8663;SDS011;4369;47.842;13.096;2022-10-15T10:33:33;5.97;;;3.63;;
8663;SDS011;4369;47.842;13.096;2022-10-15T10:36:02;3.57;;;3.00;;
8663;SDS011;4369;47.842;13.096;2022-10-15T10:38:33;4.00;;;3.60;;
8663;SDS011;4369;47.842;13.096;2022-10-15T10:41:02;5.43;;;3.20;;
8663;SDS011;4369;47.842;13.096;2022-10-15T10:43:32;3.50;;;2.90;;
8663;SDS011;4369;47.842;13.096;2022-10-15T10:46:02;2.97;;;2.27;;
8663;SDS011;4369;47.842;13.096;2022-10-15T10:48:36;3.00;;;2.37;;
8663;SDS011;4369;47.842;13.096;2022-10-15T10:51:10;5.57;;;2.40;;
8663;SDS011;4369;47.842;13.096;2022-10-15T10:53:49;5.10;;;2.67;;
8663;SDS011;4369;47.842;13.096;2022-10-15T10:56:20;2.40;;;2.20;;
8663;SDS011;4369;47.842;13.096;2022-10-15T10:58:51;2.57;;;2.30;;
8663;SDS011;4369;47.842;13.096;2022-10-15T11:01:23;2.97;;;1.90;;
8663;SDS011;4369;47.842;13.096;2022-10-15T11:03:50;2.73;;;1.90;;
8663;SDS011;4369;47.842;13.096;2022-10-15T11:06:23;3.27;;;1.90;;
8663;SDS011;4369;47.842;13.096;2022-10-15T11:09:03;2.37;;;1.90;;
8663;SDS011;4369;47.842;13.096;2022-10-15T11:11:38;1.83;;;1.73;;
8663;SDS011;4369;47.842;13.096;2022-10-15T11:14:11;2.43;;;1.90;;
8663;SDS011;4369;47.842;13.096;2022-10-15T11:16:47;2.10;;;1.90;;
8663;SDS011;4369;47.842;13.096;2022-10-15T11:19:22;2.67;;;1.57;;
8663;SDS011;4369;47.842;13.096;2022-10-15T11:22:03;2.23;;;2.00;;
8663;SDS011;4369;47.842;13.096;2022-10-15T11:24:45;3.20;;;1.80;;
8663;SDS011;4369;47.842;13.096;2022-10-15T11:27:21;1.70;;;1.60;;
8663;SDS011;4369;47.842;13.096;2022-10-15T11:30:02;3.67;;;2.00;;
8663;SDS011;4369;47.842;13.096;2022-10-15T11:32:37;2.23;;;1.50;;
8663;SDS011;4369;47.842;13.096;2022-10-15T11:35:20;2.00;;;1.90;;
8663;SDS011;4369;47.842;13.096;2022-10-15T11:38:01;1.83;;;1.70;;
8663;SDS011;4369;47.842;13.096;2022-10-15T11:40:42;2.83;;;2.50;;
8663;SDS011;4369;47.842;13.096;2022-10-15T11:43:17;3.20;;;2.40;;
8663;SDS011;4369;47.842;13.096;2022-10-15T11:45:58;3.43;;;3.10;;
8663;SDS011;4369;47.842;13.096;2022-10-15T11:48:35;4.57;;;2.90;;
8663;SDS011;4369;47.842;13.096;2022-10-15T11:51:13;3.63;;;3.30;;
8663;SDS011;4369;47.842;13.096;2022-10-15T11:53:55;5.60;;;2.87;;
8663;SDS011;4369;47.842;13.096;2022-10-15T11:56:38;4.80;;;3.47;;
8663;SDS011;4369;47.842;13.096;2022-10-15T11:59:12;5.20;;;3.77;;
8663;SDS011;4369;47.842;13.096;2022-10-15T12:01:45;5.47;;;3.90;;
8663;SDS011;4369;47.842;13.096;2022-10-15T12:04:15;3.30;;;3.00;;
8663;SDS011;4369;47.842;13.096;2022-10-15T12:06:47;4.10;;;2.90;;
8663;SDS011;4369;47.842;13.096;2022-10-15T12:09:19;3.20;;;2.40;;
8663;SDS011;4369;47.842;13.096;2022-10-15T12:11:52;2.97;;;2.70;;
8663;SDS011;4369;47.842;13.096;2022-10-15T12:14:26;3.20;;;2.77;;
8663;SDS011;4369;47.842;13.096;2022-10-15T12:16:59;5.37;;;3.90;;
8663;SDS011;4369;47.842;13.096;2022-10-15T12:19:35;7.40;;;4.13;;
8663;SDS011;4369;47.842;13.096;2022-10-15T12:22:07;4.40;;;3.93;;
8663;SDS011;4369;47.842;13.096;2022-10-15T12:24:51;7.40;;;3.73;;
8663;SDS011;4369;47.842;13.096;2022-10-15T12:27:22;4.87;;;3.47;;
8663;SDS011;4369;47.842;13.096;2022-10-15T12:30:09;4.33;;;3.73;;
8663;SDS011;4369;47.842;13.096;2022-10-15T12:32:39;4.53;;;3.80;;
8663;SDS011;4369;47.842;13.096;2022-10-15T12:35:16;3.80;;;3.17;;
8663;SDS011;4369;47.842;13.096;2022-10-15T12:37:46;3.33;;;3.00;;
8663;SDS011;4369;47.842;13.096;2022-10-15T12:40:22;3.30;;;3.00;;
8663;SDS011;4369;47.842;13.096;2022-10-15T12:42:54;5.50;;;3.10;;
8663;SDS011;4369;47.842;13.096;2022-10-15T12:45:24;3.40;;;2.90;;
8663;SDS011;4369;47.842;13.096;2022-10-15T12:47:55;3.30;;;2.83;;
8663;SDS011;4369;47.842;13.096;2022-10-15T12:50:43;4.05;;;3.13;;
8663;SDS011;4369;47.842;13.096;2022-10-15T12:56:18;3.33;;;3.03;;
8663;SDS011;4369;47.842;13.096;2022-10-15T12:58:49;3.33;;;3.03;;
8663;SDS011;4369;47.842;13.096;2022-10-15T13:01:27;4.03;;;3.10;;
8663;SDS011;4369;47.842;13.096;2022-10-15T13:03:55;4.05;;;3.22;;
8663;SDS011;4369;47.842;13.096;2022-10-15T13:06:25;3.00;;;2.78;;
8663;SDS011;4369;47.842;13.096;2022-10-15T13:09:01;5.20;;;3.40;;
8663;SDS011;4369;47.842;13.096;2022-10-15T13:11:45;3.60;;;3.30;;
8663;SDS011;4369;47.842;13.096;2022-10-15T13:14:26;3.67;;;2.90;;
8663;SDS011;4369;47.842;13.096;2022-10-15T13:16:55;3.33;;;2.55;;
8663;SDS011;4369;47.842;13.096;2022-10-15T13:19:25;5.20;;;2.83;;
8663;SDS011;4369;47.842;13.096;2022-10-15T13:21:54;4.28;;;3.25;;
8663;SDS011;4369;47.842;13.096;2022-10-15T13:24:23;2.92;;;2.40;;
8663;SDS011;4369;47.842;13.096;2022-10-15T13:26:52;3.40;;;2.35;;
8663;SDS011;4369;47.842;13.096;2022-10-15T13:29:22;2.90;;;2.60;;
8663;SDS011;4369;47.842;13.096;2022-10-15T13:31:50;3.20;;;2.78;;
8663;SDS011;4369;47.842;13.096;2022-10-15T13:34:24;2.60;;;2.40;;
8663;SDS011;4369;47.842;13.096;2022-10-15T13:36:53;3.83;;;2.45;;
8663;SDS011;4369;47.842;13.096;2022-10-15T13:39:27;2.55;;;2.35;;
8663;SDS011;4369;47.842;13.096;2022-10-15T13:42:04;2.20;;;2.00;;
8663;SDS011;4369;47.842;13.096;2022-10-15T13:44:40;3.20;;;2.17;;
8663;SDS011;4369;47.842;13.096;2022-10-15T13:47:24;2.08;;;1.98;;
8663;SDS011;4369;47.842;13.096;2022-10-15T13:52:44;3.15;;;2.00;;
8663;SDS011;4369;47.842;13.096;2022-10-15T13:55:15;1.67;;;1.55;;
8663;SDS011;4369;47.842;13.096;2022-10-15T13:57:45;2.28;;;1.85;;
8663;SDS011;4369;47.842;13.096;2022-10-15T14:00:22;4.90;;;1.85;;
8663;SDS011;4369;47.842;13.096;2022-10-15T14:03:07;3.63;;;1.77;;
8663;SDS011;4369;47.842;13.096;2022-10-15T14:05:38;2.35;;;2.15;;
8663;SDS011;4369;47.842;13.096;2022-10-15T14:08:05;3.77;;;2.33;;
8663;SDS011;4369;47.842;13.096;2022-10-15T14:10:40;2.33;;;2.10;;
8663;SDS011;4369;47.842;13.096;2022-10-15T14:13:07;2.80;;;2.60;;
8663;SDS011;4369;47.842;13.096;2022-10-15T14:15:43;3.77;;;2.23;;
8663;SDS011;4369;47.842;13.096;2022-10-15T14:18:16;3.37;;;2.10;;
8663;SDS011;4369;47.842;13.096;2022-10-15T14:20:51;1.90;;;1.70;;
8663;SDS011;4369;47.842;13.096;2022-10-15T14:23:19;4.77;;;2.17;;
8663;SDS011;4369;47.842;13.096;2022-10-15T14:25:52;4.50;;;2.23;;
8663;SDS011;4369;47.842;13.096;2022-10-15T14:28:21;3.67;;;2.70;;
8663;SDS011;4369;47.842;13.096;2022-10-15T14:30:50;3.30;;;2.43;;
8663;SDS011;4369;47.842;13.096;2022-10-15T14:33:31;2.97;;;2.63;;
8663;SDS011;4369;47.842;13.096;2022-10-15T14:36:07;3.17;;;2.90;;
8663;SDS011;4369;47.842;13.096;2022-10-15T14:38:39;3.10;;;2.90;;
8663;SDS011;4369;47.842;13.096;2022-10-15T14:41:19;3.30;;;2.33;;
8663;SDS011;4369;47.842;13.096;2022-10-15T14:43:58;2.73;;;2.47;;
8663;SDS011;4369;47.842;13.096;2022-10-15T14:46:34;2.80;;;2.60;;
8663;SDS011;4369;47.842;13.096;2022-10-15T14:49:12;3.03;;;2.47;;
8663;SDS011;4369;47.842;13.096;2022-10-15T14:51:51;2.70;;;2.50;;
8663;SDS011;4369;47.842;13.096;2022-10-15T14:54:21;2.80;;;2.57;;
8663;SDS011;4369;47.842;13.096;2022-10-15T14:56:50;3.00;;;2.70;;
8663;SDS011;4369;47.842;13.096;2022-10-15T14:59:18;3.83;;;2.77;;
8663;SDS011;4369;47.842;13.096;2022-10-15T15:01:51;5.43;;;2.70;;
8663;SDS011;4369;47.842;13.096;2022-10-15T15:04:39;3.63;;;2.80;;
8663;SDS011;4369;47.842;13.096;2022-10-15T15:07:15;3.83;;;2.70;;
8663;SDS011;4369;47.842;13.096;2022-10-15T15:09:45;2.80;;;2.60;;
8663;SDS011;4369;47.842;13.096;2022-10-15T15:12:17;3.00;;;2.40;;
8663;SDS011;4369;47.842;13.096;2022-10-15T15:14:47;3.17;;;2.60;;
8663;SDS011;4369;47.842;13.096;2022-10-15T15:17:16;3.20;;;2.30;;
8663;SDS011;4369;47.842;13.096;2022-10-15T15:19:45;3.77;;;1.90;;
8663;SDS011;4369;47.842;13.096;2022-10-15T15:22:12;5.03;;;2.00;;
8663;SDS011;4369;47.842;13.096;2022-10-15T15:24:41;6.87;;;1.77;;
8663;SDS011;4369;47.842;13.096;2022-10-15T15:27:12;3.03;;;2.37;;
8663;SDS011;4369;47.842;13.096;2022-10-15T15:29:47;2.23;;;1.97;;
8663;SDS011;4369;47.842;13.096;2022-10-15T15:32:16;2.53;;;1.50;;
8663;SDS011;4369;47.842;13.096;2022-10-15T15:34:43;2.40;;;1.57;;
8663;SDS011;4369;47.842;13.096;2022-10-15T15:37:11;2.57;;;1.40;;
8663;SDS011;4369;47.842;13.096;2022-10-15T15:39:39;4.07;;;1.37;;
8663;SDS011;4369;47.842;13.096;2022-10-15T15:42:07;2.97;;;1.70;;
8663;SDS011;4369;47.842;13.096;2022-10-15T15:44:36;3.40;;;1.63;;
8663;SDS011;4369;47.842;13.096;2022-10-15T15:47:03;3.63;;;2.50;;